Time;durP1;ratioP1;P1;durP2;ratioP2;P2;SDS_P1;SDS_P2;PMS_P1;PMS_P2;Temp;Humidity;BMP_temperature;BMP_pressure;BME280_temperature;BME280_humidity;BME280_pressure;Samples;Min_cycle;Max_cycle;Signal;HPM_P1;HPM_P2
2023/07/12 00:00:44;;;;;;;3.78;2.60;;;;;;;26.61;47.96;99693.22;5048364;28;20033;-82
2023/07/12 00:03:10;;;;;;;5.60;3.17;;;;;;;26.71;46.80;99703.31;5047070;28;20512;-82
2023/07/12 00:05:36;;;;;;;3.10;1.98;;;;;;;26.60;46.42;99694.22;5045213;28;20120;-81
2023/07/12 00:08:03;;;;;;;5.28;2.40;;;;;;;26.47;46.34;99688.09;5043852;28;20074;-82
2023/07/12 00:10:36;;;;;;;3.08;2.15;;;;;;;26.41;46.39;99705.66;5048146;28;20090;-82
2023/07/12 00:13:02;;;;;;;2.30;2.08;;;;;;;26.55;46.12;99718.06;5047859;28;20059;-81
2023/07/12 00:15:34;;;;;;;4.15;2.03;;;;;;;26.34;45.72;99673.88;5052240;28;20029;-83
2023/07/12 00:17:59;;;;;;;3.35;2.28;;;;;;;26.69;45.63;99718.84;5051755;28;20028;-81
2023/07/12 00:20:35;;;;;;;5.40;3.15;;;;;;;26.62;45.54;99716.59;5052321;28;20480;-83
2023/07/12 00:23:01;;;;;;;3.63;2.22;;;;;;;26.66;45.60;99724.50;5047024;28;20056;-82
2023/07/12 00:25:32;;;;;;;2.58;2.00;;;;;;;26.55;45.27;99691.03;5052061;28;20029;-82
2023/07/12 00:27:59;;;;;;;9.68;3.28;;;;;;;26.58;45.33;99689.94;5051912;28;20511;-82
2023/07/12 00:30:33;;;;;;;5.60;2.53;;;;;;;26.77;45.14;99705.53;5032656;28;20481;-83
2023/07/12 00:33:03;;;;;;;4.50;2.53;;;;;;;26.94;45.26;99717.66;5051643;28;20112;-83
2023/07/12 00:35:30;;;;;;;4.93;3.28;;;;;;;26.89;46.16;99728.00;5051678;28;20124;-82
2023/07/12 00:37:58;;;;;;;3.53;2.35;;;;;;;26.68;46.88;99690.94;5052108;28;20029;-83
2023/07/12 00:40:46;;;;;;;4.43;2.72;;;;;;;26.72;47.78;99713.16;5050911;28;20031;-83
2023/07/12 00:43:18;;;;;;;5.90;3.25;;;;;;;26.61;48.55;99722.13;5051684;28;20044;-83
2023/07/12 00:45:46;;;;;;;3.85;2.55;;;;;;;26.34;49.81;99701.75;5051992;28;20028;-83
2023/07/12 00:48:12;;;;;;;6.82;2.35;;;;;;;26.16;50.10;99682.47;5052324;28;20044;-82
2023/07/12 00:50:38;;;;;;;4.65;2.50;;;;;;;25.98;50.66;99676.72;5052022;28;20041;-83
2023/07/12 00:53:03;;;;;;;3.33;1.70;;;;;;;26.15;50.82;99704.22;5034399;28;20099;-83
2023/07/12 00:55:56;;;;;;;6.32;2.67;;;;;;;26.30;50.86;99716.50;5050308;28;20040;-83
2023/07/12 00:58:23;;;;;;;4.25;2.58;;;;;;;26.08;50.60;99695.75;5051856;28;20029;-83
2023/07/12 01:00:50;;;;;;;6.68;2.72;;;;;;;26.24;50.44;99698.06;5052094;28;20044;-84
2023/07/12 01:03:18;;;;;;;8.57;2.13;;;;;;;26.08;50.86;99693.03;5051873;28;20086;-83
2023/07/12 01:05:45;;;;;;;4.15;2.97;;;;;;;25.86;51.44;99699.28;5050817;28;20041;-83
2023/07/12 01:08:15;;;;;;;3.70;2.70;;;;;;;25.74;51.43;99698.38;5052121;28;20533;-83
2023/07/12 01:10:41;;;;;;;6.72;3.10;;;;;;;25.53;52.77;99693.69;5051089;28;20032;-83
2023/07/12 01:13:08;;;;;;;4.80;2.83;;;;;;;25.37;53.37;99693.13;5051918;28;20049;-83
2023/07/12 01:15:35;;;;;;;4.00;2.83;;;;;;;25.35;54.09;99705.91;5046540;28;20029;-83
2023/07/12 01:18:02;;;;;;;7.32;3.70;;;;;;;25.18;53.58;99678.31;5032990;28;20041;-83
2023/07/12 01:20:33;;;;;;;3.90;2.30;;;;;;;25.02;54.03;99661.56;5051937;28;20523;-83
2023/07/12 01:22:58;;;;;;;4.25;2.53;;;;;;;25.28;53.67;99694.66;5051931;28;20072;-83
2023/07/12 01:25:47;;;;;;;4.05;2.72;;;;;;;25.21;54.46;99698.81;5051042;28;20075;-83
2023/07/12 01:28:13;;;;;;;3.55;2.45;;;;;;;24.97;54.64;99669.16;5051175;28;20028;-82
2023/07/12 01:30:39;;;;;;;6.00;2.13;;;;;;;25.03;54.63;99690.28;5051421;28;20025;-82
2023/07/12 01:33:06;;;;;;;3.65;2.30;;;;;;;24.78;54.63;99665.13;5051563;28;20487;-83
2023/07/12 01:35:32;;;;;;;2.50;1.90;;;;;;;24.72;55.02;99687.16;5050435;28;20033;-83
2023/07/12 01:37:58;;;;;;;2.92;2.25;;;;;;;24.65;55.55;99702.06;5051249;28;20114;-83
2023/07/12 01:40:23;;;;;;;3.90;2.47;;;;;;;24.59;55.68;99691.72;5051118;28;20051;-83
2023/07/12 01:42:49;;;;;;;4.28;3.05;;;;;;;24.41;56.33;99689.38;5051146;28;20025;-84
2023/07/12 01:45:14;;;;;;;7.47;2.65;;;;;;;24.48;55.89;99682.59;5050774;28;20392;-84
2023/07/12 01:47:40;;;;;;;4.47;2.53;;;;;;;24.57;55.78;99702.63;5050412;28;20037;-83
2023/07/12 01:50:06;;;;;;;4.63;3.33;;;;;;;24.31;55.55;99678.44;5050539;28;20437;-83
2023/07/12 01:52:31;;;;;;;6.82;3.58;;;;;;;24.41;55.71;99694.78;5050072;28;20035;-84
2023/07/12 01:54:57;;;;;;;5.30;2.97;;;;;;;24.50;55.99;99712.13;5050331;28;20033;-83
2023/07/12 01:57:23;;;;;;;3.20;1.92;;;;;;;24.67;55.30;99713.63;5050840;28;20086;-83
2023/07/12 01:59:49;;;;;;;4.20;2.63;;;;;;;24.70;55.59;99705.31;5050952;28;20029;-83
2023/07/12 02:02:14;;;;;;;2.60;2.00;;;;;;;24.59;56.11;99708.78;5049400;28;20473;-83
2023/07/12 02:04:40;;;;;;;5.30;2.60;;;;;;;24.39;56.13;99663.50;5031993;28;20044;-82
2023/07/12 02:07:05;;;;;;;5.05;3.08;;;;;;;24.61;56.07;99685.25;5050122;28;20033;-84
2023/07/12 02:09:39;;;;;;;5.07;3.30;;;;;;;24.68;56.45;99688.34;5050249;28;20052;-83
2023/07/12 02:12:05;;;;;;;4.20;2.33;;;;;;;24.70;56.45;99691.81;5051187;28;20029;-83
2023/07/12 02:14:30;;;;;;;5.78;3.13;;;;;;;24.74;56.72;99711.31;5051023;28;20443;-82
2023/07/12 02:16:56;;;;;;;3.47;2.55;;;;;;;24.56;57.15;99678.44;5049472;28;20040;-82
2023/07/12 02:19:21;;;;;;;10.00;2.75;;;;;;;24.75;56.31;99710.38;5050202;28;20029;-82
2023/07/12 02:21:47;;;;;;;5.55;2.92;;;;;;;24.33;57.34;99681.00;5049895;28;20533;-82
2023/07/12 02:24:12;;;;;;;3.63;2.45;;;;;;;24.40;57.44;99697.59;5050053;28;20568;-83
2023/07/12 02:26:39;;;;;;;6.15;3.47;;;;;;;24.40;57.41;99698.44;5050071;28;20032;-83
2023/07/12 02:29:05;;;;;;;9.88;1.92;;;;;;;24.47;57.73;99715.06;5032497;28;20423;-82
2023/07/12 02:31:31;;;;;;;3.60;2.10;;;;;;;24.45;57.73;99700.81;5049875;28;20039;-82
2023/07/12 02:33:57;;;;;;;7.00;2.78;;;;;;;24.18;58.08;99707.22;5043519;28;20458;-84
2023/07/12 02:36:23;;;;;;;6.10;2.85;;;;;;;24.17;57.96;99718.97;5045294;28;20028;-83
2023/07/12 02:38:48;;;;;;;5.88;3.78;;;;;;;24.15;58.21;99706.59;5050121;28;20040;-83
2023/07/12 02:41:18;;;;;;;6.28;3.05;;;;;;;24.18;57.90;99711.75;5049733;28;20479;-83
2023/07/12 02:43:47;;;;;;;7.18;3.63;;;;;;;24.24;58.53;99736.44;5050253;28;20021;-84
2023/07/12 02:46:12;;;;;;;3.30;2.08;;;;;;;24.33;58.60;99731.34;5048947;28;20056;-84
2023/07/12 02:48:38;;;;;;;4.40;2.03;;;;;;;24.33;58.39;99726.81;5049992;28;20133;-84
2023/07/12 02:51:04;;;;;;;5.20;2.78;;;;;;;24.01;58.56;99723.72;5050159;28;20040;-84
2023/07/12 02:53:30;;;;;;;12.55;3.50;;;;;;;23.74;59.49;99730.03;5050007;28;20119;-84
2023/07/12 02:55:56;;;;;;;7.00;3.00;;;;;;;23.60;59.99;99721.09;5050226;28;20112;-84
2023/07/12 02:58:22;;;;;;;3.15;2.08;;;;;;;23.67;60.43;99734.97;5049762;28;20147;-84
2023/07/12 03:00:48;;;;;;;5.82;3.22;;;;;;;23.51;59.85;99702.00;5045823;28;20504;-83
2023/07/12 03:03:13;;;;;;;4.88;3.22;;;;;;;23.75;59.53;99721.00;5049589;28;20121;-83
2023/07/12 03:05:40;;;;;;;4.35;2.45;;;;;;;23.89;59.76;99744.31;5048332;28;20510;-83
2023/07/12 03:08:06;;;;;;;4.38;2.85;;;;;;;23.87;59.64;99720.16;5049460;28;20056;-83
2023/07/12 03:10:36;;;;;;;9.25;2.28;;;;;;;23.99;59.59;99742.69;5049599;28;20033;-84
2023/07/12 03:13:01;;;;;;;6.88;3.40;;;;;;;23.89;59.95;99739.75;5029920;28;20129;-84
2023/07/12 03:15:26;;;;;;;7.22;5.18;;;;;;;23.93;60.15;99749.38;5029807;28;20076;-84
2023/07/12 03:17:52;;;;;;;4.88;3.67;;;;;;;23.93;60.24;99760.13;5029686;28;20030;-85
2023/07/12 03:20:17;;;;;;;4.38;2.85;;;;;;;23.99;60.02;99749.91;5052423;28;20086;-85
2023/07/12 03:22:43;;;;;;;4.45;2.53;;;;;;;23.73;60.07;99699.56;5052836;28;20499;-84
2023/07/12 03:25:08;;;;;;;5.82;3.63;;;;;;;24.02;59.55;99750.56;5052598;28;20463;-84
2023/07/12 03:27:34;;;;;;;5.97;3.45;;;;;;;24.27;58.82;99773.09;5054010;28;20118;-83
2023/07/12 03:29:59;;;;;;;5.75;3.25;;;;;;;24.15;59.50;99769.41;5053084;28;20120;-84
2023/07/12 03:32:25;;;;;;;11.00;4.38;;;;;;;23.94;59.95;99753.78;5053270;28;20657;-84
2023/07/12 03:34:51;;;;;;;5.90;3.00;;;;;;;23.78;60.30;99739.63;5052932;28;20036;-83
2023/07/12 03:37:16;;;;;;;7.20;2.70;;;;;;;23.84;59.99;99760.78;5052282;28;20036;-84
2023/07/12 03:39:43;;;;;;;4.95;3.08;;;;;;;23.90;60.15;99787.28;5053268;28;20033;-84
2023/07/12 03:42:09;;;;;;;7.95;3.92;;;;;;;23.83;61.03;99774.31;5053356;28;20491;-84
2023/07/12 03:44:35;;;;;;;3.92;2.80;;;;;;;23.87;60.89;99779.41;5053116;28;20029;-83
2023/07/12 03:47:00;;;;;;;13.63;3.97;;;;;;;23.94;61.01;99779.84;5053148;28;20033;-84
2023/07/12 03:49:26;;;;;;;8.50;3.72;;;;;;;24.10;59.72;99779.66;5051826;28;20396;-84
2023/07/12 03:51:51;;;;;;;6.57;3.33;;;;;;;24.13;59.86;99793.78;5053118;28;20025;-82
2023/07/12 03:54:16;;;;;;;6.22;3.35;;;;;;;24.17;59.88;99796.25;5052299;28;20028;-82
2023/07/12 03:56:42;;;;;;;13.60;3.47;;;;;;;24.18;59.82;99760.25;5053558;28;20025;-82
2023/07/12 03:59:08;;;;;;;9.52;3.17;;;;;;;24.60;57.78;99796.78;5053326;28;20044;-84
2023/07/12 04:01:36;;;;;;;4.97;3.25;;;;;;;24.60;58.94;99807.56;5032322;28;20132;-84
2023/07/12 04:04:02;;;;;;;7.15;3.15;;;;;;;24.15;59.12;99734.38;5052513;28;20040;-84
2023/07/12 04:06:31;;;;;;;7.03;3.38;;;;;;;24.26;59.17;99721.00;5048302;28;20044;-85
2023/07/12 04:08:57;;;;;;;4.03;2.33;;;;;;;24.38;59.59;99719.25;5023704;28;20041;-84
2023/07/12 04:11:27;;;;;;;7.20;3.03;;;;;;;24.72;60.51;99776.16;5052277;28;20475;-83
2023/07/12 04:13:56;;;;;;;10.93;3.33;;;;;;;24.55;60.60;99734.22;5040381;28;20037;-84
2023/07/12 04:16:25;;;;;;;4.85;3.60;;;;;;;24.86;61.11;99764.38;5048291;28;20107;-82
2023/07/12 04:18:55;;;;;;;6.55;2.60;;;;;;;24.98;61.02;99768.88;5045314;28;20033;-86
2023/07/12 04:21:24;;;;;;;9.48;4.00;;;;;;;25.12;60.96;99785.88;5046372;28;20037;-84
2023/07/12 04:23:52;;;;;;;6.00;2.72;;;;;;;25.20;60.96;99767.25;5044354;28;20186;-85
2023/07/12 04:26:19;;;;;;;6.47;2.83;;;;;;;25.51;60.32;99776.63;5030481;28;20044;-86
2023/07/12 04:28:49;;;;;;;4.78;2.80;;;;;;;25.57;59.77;99793.38;5029292;28;20388;-85
2023/07/12 04:31:16;;;;;;;14.35;2.72;;;;;;;25.70;60.24;99791.44;5049440;28;20059;-84
2023/07/12 04:33:42;;;;;;;14.80;3.65;;;;;;;25.81;59.70;99769.88;5051165;28;20041;-84
2023/07/12 04:36:12;;;;;;;12.77;3.85;;;;;;;25.94;58.46;99755.41;5053328;28;20040;-86
2023/07/12 04:38:45;;;;;;;4.80;2.67;;;;;;;26.08;54.90;99772.28;5032631;28;20045;-83
2023/07/12 04:41:18;;;;;;;7.28;4.53;;;;;;;25.96;52.76;99764.25;5018659;28;20040;-88
2023/07/12 04:43:44;;;;;;;10.15;3.40;;;;;;;25.90;50.78;99760.16;5034514;28;20044;-85
2023/07/12 04:46:10;;;;;;;5.55;2.97;;;;;;;26.29;50.66;99805.84;5039340;28;20049;-82
2023/07/12 04:48:41;;;;;;;4.90;2.90;;;;;;;26.64;50.59;99811.16;5049436;28;20067;-83
2023/07/12 04:51:08;;;;;;;5.60;3.08;;;;;;;26.54;50.17;99770.47;5043805;28;20124;-83
2023/07/12 04:53:41;;;;;;;3.60;2.60;;;;;;;26.77;50.51;99771.34;5042891;28;20025;-85
2023/07/12 04:56:07;;;;;;;6.55;3.53;;;;;;;26.72;48.42;99735.66;5042028;28;20040;-84
2023/07/12 04:58:33;;;;;;;6.35;3.47;;;;;;;26.94;47.94;99740.19;5036269;28;20041;-89
2023/07/12 05:00:59;;;;;;;5.22;3.33;;;;;;;27.36;47.38;99765.66;5044729;28;20044;-86
2023/07/12 05:03:25;;;;;;;4.20;2.63;;;;;;;27.45;47.92;99754.94;5045492;28;20055;-87
2023/07/12 05:05:51;;;;;;;5.15;3.05;;;;;;;27.85;47.76;99800.28;5039379;28;20539;-85
2023/07/12 05:08:16;;;;;;;4.68;2.90;;;;;;;28.03;47.57;99805.16;5042111;28;20396;-84
2023/07/12 05:10:42;;;;;;;7.25;2.78;;;;;;;27.98;46.06;99807.41;5042760;28;21562;-83
2023/07/12 05:13:07;;;;;;;12.40;2.78;;;;;;;28.15;45.05;99806.78;5043849;28;20562;-86
2023/07/12 05:15:33;;;;;;;8.65;3.00;;;;;;;28.15;44.17;99801.38;5041583;28;20060;-85
2023/07/12 05:17:58;;;;;;;8.07;4.57;;;;;;;28.37;44.40;99794.06;5045063;28;20510;-89
2023/07/12 05:20:24;;;;;;;5.63;3.15;;;;;;;28.60;45.51;99810.22;5029975;28;20130;-90
2023/07/12 05:22:49;;;;;;;4.25;3.15;;;;;;;28.22;45.34;99782.69;5040801;28;20025;-88
2023/07/12 05:25:17;;;;;;;4.22;2.58;;;;;;;28.65;45.31;99826.94;5044312;28;20029;-89
2023/07/12 05:27:43;;;;;;;5.65;3.17;;;;;;;28.60;44.86;99834.63;5040477;28;20107;-89
2023/07/12 05:30:10;;;;;;;4.57;3.03;;;;;;;28.69;45.40;99812.09;5043178;28;20115;-89
2023/07/12 05:32:35;;;;;;;3.30;2.50;;;;;;;28.99;45.33;99813.88;5040158;28;20037;-88
2023/07/12 05:35:01;;;;;;;4.75;2.53;;;;;;;29.36;43.69;99823.31;5024612;28;20064;-87
2023/07/12 05:37:26;;;;;;;8.32;3.40;;;;;;;29.24;41.78;99798.09;5038186;28;20036;-87
2023/07/12 05:39:52;;;;;;;12.57;3.00;;;;;;;29.58;41.68;99803.13;5042153;28;20126;-88
2023/07/12 05:42:19;;;;;;;4.53;3.10;;;;;;;29.67;40.90;99805.00;5036269;28;20040;-87
2023/07/12 05:44:44;;;;;;;4.57;2.70;;;;;;;29.74;39.83;99791.72;5037665;28;20056;-87
2023/07/12 05:47:10;;;;;;;6.80;3.38;;;;;;;29.84;41.76;99819.75;5040833;28;20403;-85
2023/07/12 05:49:35;;;;;;;8.32;4.15;;;;;;;29.84;41.04;99817.03;5041826;28;20033;-87
2023/07/12 05:52:01;;;;;;;9.73;3.47;;;;;;;29.91;40.66;99787.44;5044725;28;20098;-85
2023/07/12 05:54:26;;;;;;;9.38;3.40;;;;;;;30.03;40.44;99793.53;5042408;28;20090;-89
2023/07/12 05:56:52;;;;;;;5.45;3.22;;;;;;;30.29;40.84;99805.53;5042071;28;20043;-86
2023/07/12 05:59:18;;;;;;;6.03;2.70;;;;;;;30.86;39.62;99829.09;5040328;28;20032;-86
2023/07/12 06:01:44;;;;;;;5.43;3.13;;;;;;;31.33;38.74;99820.00;5041012;28;20493;-87
2023/07/12 06:04:11;;;;;;;4.32;2.92;;;;;;;31.29;38.61;99813.97;5039125;28;20107;-87
2023/07/12 06:06:37;;;;;;;6.95;3.53;;;;;;;31.22;38.95;99838.25;5039337;28;20029;-85
2023/07/12 06:09:02;;;;;;;6.60;4.03;;;;;;;31.33;38.96;99818.09;5038423;28;20025;-85
2023/07/12 06:11:28;;;;;;;12.52;2.55;;;;;;;31.51;40.41;99836.34;5041752;28;20418;-84
2023/07/12 06:13:53;;;;;;;5.45;3.80;;;;;;;31.03;39.71;99819.28;5043684;28;20055;-84
2023/07/12 06:16:19;;;;;;;20.70;2.88;;;;;;;31.04;38.62;99840.09;5048782;28;20052;-82
2023/07/12 06:18:44;;;;;;;3.55;2.33;;;;;;;30.96;40.26;99839.97;5047959;28;20028;-82
2023/07/12 06:21:09;;;;;;;4.50;2.40;;;;;;;31.03;41.06;99836.50;5046743;28;20104;-81
2023/07/12 06:23:35;;;;;;;7.82;2.63;;;;;;;31.43;39.84;99831.66;5045510;28;20033;-82
2023/07/12 06:26:01;;;;;;;10.88;3.42;;;;;;;31.18;40.84;99827.81;5049345;28;20025;-81
2023/07/12 06:28:27;;;;;;;4.47;2.72;;;;;;;31.43;40.61;99815.31;5043603;28;20033;-82
2023/07/12 06:30:53;;;;;;;18.25;4.18;;;;;;;31.47;38.75;99832.22;5039584;28;20551;-82
2023/07/12 06:33:19;;;;;;;11.18;3.70;;;;;;;31.94;38.90;99818.34;5048804;28;20099;-82
2023/07/12 06:35:45;;;;;;;9.98;4.63;;;;;;;32.42;38.38;99805.22;5049069;28;20487;-83
2023/07/12 06:38:10;;;;;;;8.60;4.15;;;;;;;32.93;37.84;99813.53;5045269;28;20044;-83
2023/07/12 06:40:38;;;;;;;7.75;3.38;;;;;;;33.36;36.05;99820.66;5036870;28;20029;-82
2023/07/12 06:43:03;;;;;;;6.80;3.50;;;;;;;33.56;37.13;99817.63;5044844;28;20020;-83
2023/07/12 06:45:28;;;;;;;6.03;3.88;;;;;;;33.85;34.82;99821.78;5041814;28;20468;-83
2023/07/12 06:47:54;;;;;;;6.63;3.05;;;;;;;33.71;35.22;99790.47;5039680;28;20025;-83
2023/07/12 06:50:19;;;;;;;9.30;3.47;;;;;;;34.07;36.13;99804.66;5037789;28;20056;-83
2023/07/12 06:52:45;;;;;;;5.50;2.95;;;;;;;33.89;35.35;99817.66;5038585;28;20025;-82
2023/07/12 06:55:11;;;;;;;5.05;3.55;;;;;;;33.86;35.84;99783.34;5042313;28;20024;-82
2023/07/12 06:57:36;;;;;;;10.27;4.32;;;;;;;33.96;34.22;99815.97;5042904;28;20025;-82
2023/07/12 07:00:06;;;;;;;4.93;3.25;;;;;;;34.40;33.77;99804.66;5038579;28;20715;-82
2023/07/12 07:02:32;;;;;;;4.25;3.00;;;;;;;34.57;32.94;99823.75;5039894;28;20029;-82
2023/07/12 07:04:58;;;;;;;4.72;2.97;;;;;;;34.61;33.99;99816.91;5041003;28;21884;-83
2023/07/12 07:07:23;;;;;;;10.90;2.55;;;;;;;34.89;32.96;99806.38;5042138;28;20035;-82
2023/07/12 07:09:49;;;;;;;3.47;2.25;;;;;;;35.16;32.03;99809.69;5042445;28;20024;-83
2023/07/12 07:12:15;;;;;;;8.35;3.25;;;;;;;35.30;31.76;99806.19;5041385;28;20025;-83
2023/07/12 07:14:41;;;;;;;7.07;3.28;;;;;;;34.96;33.34;99781.88;5044712;28;20029;-84
2023/07/12 07:17:10;;;;;;;5.68;3.05;;;;;;;35.44;31.14;99809.19;5044995;28;20032;-84
2023/07/12 07:19:36;;;;;;;5.85;3.30;;;;;;;35.32;33.35;99820.56;5039752;28;20414;-83
2023/07/12 07:22:02;;;;;;;11.60;4.18;;;;;;;35.74;32.66;99801.91;5039530;28;20033;-83
2023/07/12 07:24:28;;;;;;;9.45;4.03;;;;;;;35.92;33.34;99800.78;5041630;28;20045;-83
2023/07/12 07:26:53;;;;;;;19.83;3.80;;;;;;;36.23;31.35;99797.91;5037125;28;20094;-84
2023/07/12 07:29:19;;;;;;;4.30;2.83;;;;;;;35.79;32.69;99821.47;5038533;28;20033;-83
2023/07/12 07:31:44;;;;;;;9.65;3.20;;;;;;;35.93;30.72;99764.94;5039485;28;20751;-83
2023/07/12 07:34:10;;;;;;;4.38;3.17;;;;;;;36.39;31.46;99807.88;5042465;28;20108;-81
2023/07/12 07:36:35;;;;;;;5.75;3.55;;;;;;;35.97;31.50;99806.56;5039440;28;20090;-83
2023/07/12 07:39:01;;;;;;;5.40;3.30;;;;;;;36.30;31.54;99787.03;5040892;28;21035;-82
2023/07/12 07:41:27;;;;;;;5.05;2.95;;;;;;;36.48;30.74;99781.19;5044522;28;20090;-83
2023/07/12 07:43:53;;;;;;;10.68;3.00;;;;;;;36.05;29.18;99803.72;5043934;28;20040;-83
2023/07/12 07:46:18;;;;;;;11.10;3.22;;;;;;;36.24;29.61;99802.34;5041489;28;20029;-83
2023/07/12 07:48:45;;;;;;;7.57;3.70;;;;;;;36.49;30.72;99819.44;5039458;28;20037;-82
2023/07/12 07:51:12;;;;;;;15.63;3.35;;;;;;;37.50;30.13;99815.25;5041143;28;20116;-83
2023/07/12 07:53:38;;;;;;;3.55;2.25;;;;;;;37.65;29.20;99810.53;5039095;28;20037;-83
2023/07/12 07:56:03;;;;;;;8.07;3.22;;;;;;;37.87;27.47;99816.91;5038820;28;20021;-83
2023/07/12 07:58:29;;;;;;;3.28;2.28;;;;;;;38.39;27.66;99812.03;5042451;28;20048;-83
2023/07/12 08:00:54;;;;;;;7.00;3.83;;;;;;;38.26;28.90;99790.75;5042393;28;20025;-83
2023/07/12 08:03:20;;;;;;;5.45;2.92;;;;;;;38.04;27.70;99780.84;5048898;28;20021;-84
2023/07/12 08:05:45;;;;;;;4.10;2.58;;;;;;;38.23;27.22;99810.41;5060980;28;20036;-85
2023/07/12 08:08:12;;;;;;;4.90;2.28;;;;;;;37.70;26.43;99799.81;5066186;28;20037;-83
2023/07/12 08:10:38;;;;;;;5.03;3.13;;;;;;;37.50;26.99;99799.59;5062728;28;20032;-85
2023/07/12 08:13:04;;;;;;;5.68;3.83;;;;;;;37.82;27.52;99788.25;5064773;28;20052;-85
2023/07/12 08:15:29;;;;;;;3.30;2.28;;;;;;;37.94;27.89;99809.56;5048154;28;20052;-84
2023/07/12 08:17:55;;;;;;;3.90;3.00;;;;;;;37.23;27.93;99812.19;5068554;28;20035;-82
2023/07/12 08:20:22;;;;;;;4.28;2.72;;;;;;;37.43;27.29;99796.78;5067548;28;20104;-82
2023/07/12 08:22:48;;;;;;;3.20;1.90;;;;;;;37.54;25.83;99800.03;5068728;28;20051;-84
2023/07/12 08:25:15;;;;;;;9.45;2.72;;;;;;;38.20;25.86;99780.53;5067443;28;20084;-84
2023/07/12 08:27:41;;;;;;;4.38;2.88;;;;;;;38.83;26.61;99804.44;5063128;28;20059;-85
2023/07/12 08:30:07;;;;;;;6.28;2.50;;;;;;;38.32;27.59;99769.81;5063714;28;20029;-86
2023/07/12 08:32:33;;;;;;;5.25;4.47;;;;;;;38.09;28.83;99790.16;5061198;28;20044;-87
2023/07/12 08:35:00;;;;;;;4.97;3.72;;;;;;;38.46;26.44;99799.13;5061602;28;20561;-85
2023/07/12 08:37:26;;;;;;;5.38;2.40;;;;;;;38.51;25.36;99762.72;5046960;28;20036;-86
2023/07/12 08:39:52;;;;;;;7.40;3.55;;;;;;;38.55;26.68;99786.06;5043890;28;21849;-84
2023/07/12 08:42:28;;;;;;;5.68;2.67;;;;;;;38.91;27.42;99776.69;5042718;28;20442;-84
2023/07/12 08:44:58;;;;;;;4.10;2.47;;;;;;;39.29;27.88;99770.69;5045795;28;20041;-84
2023/07/12 08:47:28;;;;;;;5.43;2.60;;;;;;;38.67;24.74;99784.44;5044562;28;20398;-85
2023/07/12 08:49:53;;;;;;;13.43;2.08;;;;;;;38.98;23.65;99749.16;5047471;28;20495;-85
2023/07/12 08:52:26;;;;;;;4.00;2.22;;;;;;;39.00;26.13;99785.66;5046038;28;20112;-84
2023/07/12 08:55:02;;;;;;;3.45;2.13;;;;;;;38.68;25.06;99772.38;5046533;28;20068;-84
2023/07/12 08:57:30;;;;;;;4.68;2.35;;;;;;;39.23;25.32;99774.28;5043750;28;20033;-85
2023/07/12 09:00:19;;;;;;;6.57;3.10;;;;;;;39.33;25.63;99774.75;5043925;28;20109;-84
2023/07/12 09:02:45;;;;;;;4.30;2.35;;;;;;;39.42;25.95;99778.13;5045935;28;20025;-84
2023/07/12 09:05:23;;;;;;;3.92;2.22;;;;;;;38.42;25.75;99786.84;5046885;28;20029;-84
2023/07/12 09:08:17;;;;;;;5.32;2.78;;;;;;;39.01;25.57;99787.34;5045776;28;20162;-84
2023/07/12 09:10:54;;;;;;;5.00;2.78;;;;;;;39.04;24.85;99765.72;5047306;28;20091;-85
2023/07/12 09:13:20;;;;;;;7.07;3.05;;;;;;;38.95;25.20;99789.03;5044202;28;20434;-88
2023/07/12 09:15:49;;;;;;;3.33;3.00;;;;;;;39.25;23.92;99788.72;5043319;28;20028;-86
2023/07/12 09:18:32;;;;;;;6.32;3.08;;;;;;;39.64;23.41;99773.31;5045384;28;20025;-85
2023/07/12 09:21:00;;;;;;;4.80;2.67;;;;;;;40.15;24.13;99785.66;5043106;28;20068;-89
2023/07/12 09:23:36;;;;;;;3.95;2.03;;;;;;;39.65;25.13;99791.56;5044375;28;20082;-91
2023/07/12 09:26:16;;;;;;;4.68;3.05;;;;;;;39.24;26.08;99786.16;5047231;28;20025;-90
2023/07/12 09:28:41;;;;;;;8.23;2.50;;;;;;;38.83;26.67;99755.69;5043615;28;20506;-88
2023/07/12 09:31:21;;;;;;;18.08;3.70;;;;;;;39.35;26.03;99786.41;5043512;28;20029;-89
2023/07/12 09:33:53;;;;;;;6.65;2.20;;;;;;;39.14;25.40;99768.09;5044076;28;20094;-88
2023/07/12 09:36:19;;;;;;;3.85;2.97;;;;;;;39.54;24.55;99776.47;5028610;28;20433;-86
2023/07/12 09:38:46;;;;;;;4.53;3.30;;;;;;;39.56;24.89;99768.00;5043086;28;20044;-87
2023/07/12 09:41:18;;;;;;;3.63;2.03;;;;;;;39.14;25.43;99775.53;5043371;28;20032;-87
2023/07/12 09:43:50;;;;;;;4.13;2.00;;;;;;;39.25;25.98;99777.69;5041336;28;20456;-86
2023/07/12 09:46:34;;;;;;;2.88;2.05;;;;;;;39.49;24.64;99792.81;5044924;28;20543;-87
2023/07/12 09:49:25;;;;;;;3.15;1.83;;;;;;;39.21;25.55;99791.03;5041561;28;20029;-87
2023/07/12 09:52:14;;;;;;;5.00;2.67;;;;;;;39.18;25.56;99765.81;4972719;28;20061;-87
2023/07/12 09:55:01;;;;;;;2.63;1.88;;;;;;;39.44;24.66;99784.31;4971892;28;20671;-86
2023/07/12 09:57:58;;;;;;;5.32;2.28;;;;;;;39.21;26.57;99766.22;4966038;28;20577;-89
2023/07/12 10:00:37;;;;;;;4.10;1.98;;;;;;;39.54;23.49;99767.38;4971176;28;20034;-86
2023/07/12 10:03:19;;;;;;;4.60;2.03;;;;;;;39.49;24.02;99739.53;4967136;28;20057;-87
2023/07/12 10:06:01;;;;;;;6.03;2.38;;;;;;;39.43;25.25;99768.81;4967461;28;20040;-84
2023/07/12 10:08:44;;;;;;;3.28;1.73;;;;;;;39.12;26.96;99750.94;4967829;28;20038;-86
2023/07/12 10:11:31;;;;;;;4.60;2.28;;;;;;;38.78;26.79;99752.69;4969456;28;20086;-86
2023/07/12 10:14:02;;;;;;;4.57;2.95;;;;;;;38.12;26.99;99723.69;4959586;28;20434;-84
2023/07/12 10:16:34;;;;;;;3.17;2.08;;;;;;;38.29;26.78;99734.41;4959859;28;20434;-85
2023/07/12 10:19:11;;;;;;;7.18;1.88;;;;;;;38.54;26.86;99754.03;4960563;28;20113;-86
2023/07/12 10:21:38;;;;;;;9.05;3.70;;;;;;;38.76;26.15;99737.41;4968802;28;20148;-87
2023/07/12 10:24:06;;;;;;;4.40;2.38;;;;;;;38.89;26.33;99720.94;4970454;28;20125;-84
2023/07/12 10:26:34;;;;;;;4.40;1.95;;;;;;;38.99;26.65;99735.19;4969263;28;20057;-83
2023/07/12 10:29:15;;;;;;;3.95;2.40;;;;;;;39.05;27.12;99722.44;5009804;28;20495;-84
2023/07/12 10:32:00;;;;;;;2.92;2.00;;;;;;;39.06;25.83;99724.16;5043746;28;20017;-84
2023/07/12 10:34:34;;;;;;;3.10;1.92;;;;;;;39.17;24.65;99726.31;5038052;28;20132;-84
2023/07/12 10:37:11;;;;;;;6.57;2.42;;;;;;;39.04;25.72;99694.03;5042293;28;20036;-85
2023/07/12 10:39:37;;;;;;;9.85;2.88;;;;;;;39.49;24.53;99693.47;5039144;28;20105;-86
2023/07/12 10:42:17;;;;;;;3.63;2.13;;;;;;;40.04;24.87;99715.34;5041393;28;20462;-83
2023/07/12 10:44:51;;;;;;;3.35;2.50;;;;;;;39.83;23.86;99691.56;5038261;28;20494;-84
2023/07/12 10:47:18;;;;;;;;;;;;;;;39.78;23.89;99718.09;5039315;28;20056;-85
2023/07/12 10:49:52;;;;;;;3.78;2.03;;;;;;;39.74;25.22;99710.25;5042241;28;19920;-86
2023/07/12 10:52:54;;;;;;;3.20;2.25;;;;;;;39.60;26.00;99694.78;5042482;28;20060;-84
2023/07/12 10:55:36;;;;;;;4.05;3.03;;;;;;;39.86;25.19;99701.34;5041648;28;20120;-85
2023/07/12 10:58:20;;;;;;;2.40;1.63;;;;;;;40.07;23.53;99706.66;5042068;28;20033;-84
2023/07/12 11:00:50;;;;;;;;;;;;;;;39.82;24.16;99698.13;5041154;28;20432;-86
2023/07/12 11:03:20;;;;;;;8.13;3.38;;;;;;;39.78;24.59;99665.66;5042702;28;20375;-84
2023/07/12 11:05:54;;;;;;;4.32;2.50;;;;;;;39.64;24.28;99679.50;5042098;28;20056;-84
2023/07/12 11:08:32;;;;;;;10.07;3.35;;;;;;;40.02;23.74;99700.91;5043494;28;20040;-83
2023/07/12 11:11:21;;;;;;;4.15;1.73;;;;;;;39.96;23.33;99679.63;5039542;28;20499;-83
2023/07/12 11:13:54;;;;;;;1.90;1.38;;;;;;;39.62;24.17;99666.97;5041732;28;20763;-85
2023/07/12 11:16:20;;;;;;;2.15;1.35;;;;;;;39.96;24.06;99663.06;5040991;28;20090;-86
2023/07/12 11:18:57;;;;;;;3.92;2.53;;;;;;;39.93;23.51;99658.84;5039478;28;20410;-84
2023/07/12 11:21:27;;;;;;;7.00;2.83;;;;;;;39.78;22.62;99676.69;5044417;28;20029;-86
2023/07/12 11:23:53;;;;;;;5.50;2.20;;;;;;;39.70;22.93;99663.97;5043084;28;20055;-85
2023/07/12 11:26:28;;;;;;;17.50;2.92;;;;;;;39.72;23.21;99668.22;5042555;28;20025;-86
2023/07/12 11:29:34;;;;;;;6.78;2.95;;;;;;;40.13;22.75;99681.97;5040977;28;20897;-86
2023/07/12 11:32:18;;;;;;;4.72;2.08;;;;;;;39.58;23.55;99663.78;5042345;28;20033;-84
2023/07/12 11:34:46;;;;;;;3.08;1.67;;;;;;;39.36;23.90;99663.97;5045609;28;20116;-86
2023/07/12 11:37:25;;;;;;;5.60;2.70;;;;;;;39.58;23.87;99663.78;5040848;28;20109;-87
2023/07/12 11:39:51;;;;;;;5.40;2.67;;;;;;;39.25;23.94;99638.94;5042561;28;20071;-85
2023/07/12 11:42:27;;;;;;;9.20;3.10;;;;;;;39.48;24.58;99644.88;5043056;28;20759;-86